createdAt,value
2023-02-28T00:01:36.299Z,2.10
2023-02-28T00:04:05.196Z,2.10
2023-02-28T00:06:33.959Z,2.09
2023-02-28T00:09:03.106Z,2.10
2023-02-28T00:11:32.073Z,2.09
2023-02-28T00:14:00.836Z,2.10
2023-02-28T00:16:29.806Z,2.10
2023-02-28T00:18:58.836Z,2.09
2023-02-28T00:21:27.808Z,2.08
2023-02-28T00:23:57.014Z,2.08
2023-02-28T00:26:25.753Z,2.07
2023-02-28T00:28:54.491Z,2.07
2023-02-28T00:31:25.000Z,2.07
2023-02-28T00:33:53.830Z,2.07
2023-02-28T00:36:23.209Z,2.07
2023-02-28T00:38:51.883Z,2.07
2023-02-28T00:41:20.787Z,2.07
2023-02-28T00:43:50.085Z,2.07
2023-02-28T00:46:18.832Z,2.07
2023-02-28T00:48:47.777Z,2.06
2023-02-28T00:51:17.074Z,2.05
2023-02-28T00:53:45.761Z,2.02
2023-02-28T00:56:14.960Z,1.99
2023-02-28T00:58:43.641Z,1.95
2023-02-28T01:01:12.559Z,1.93
2023-02-28T01:03:41.643Z,1.90
2023-02-28T01:06:10.314Z,1.89
2023-02-28T01:08:41.153Z,1.87
2023-02-28T01:11:12.082Z,1.87
2023-02-28T01:13:43.853Z,1.87
2023-02-28T01:16:14.923Z,1.88
2023-02-28T01:18:44.683Z,1.88
2023-02-28T01:21:15.638Z,1.89
2023-02-28T01:23:45.043Z,1.89
2023-02-28T01:26:17.630Z,1.88
2023-02-28T01:28:47.023Z,1.88
2023-02-28T01:31:15.876Z,1.87
2023-02-28T01:33:45.095Z,1.88
2023-02-28T01:36:16.971Z,1.86
2023-02-28T01:38:46.589Z,1.86
2023-02-28T01:41:22.338Z,1.84
2023-02-28T01:43:51.325Z,1.83
2023-02-28T01:46:20.663Z,1.83
2023-02-28T01:48:51.763Z,1.83
2023-02-28T01:51:28.477Z,1.82
2023-02-28T01:54:02.659Z,1.81
2023-02-28T01:56:36.555Z,1.81
2023-02-28T01:59:07.305Z,1.80
2023-02-28T02:01:36.427Z,1.82
2023-02-28T02:04:05.708Z,1.85
2023-02-28T02:06:45.541Z,1.88
2023-02-28T02:09:14.643Z,1.90
2023-02-28T02:11:46.190Z,1.92
2023-02-28T02:14:34.247Z,1.94
2023-02-28T02:17:15.213Z,1.94
2023-02-28T02:19:53.302Z,1.95
2023-02-28T02:22:48.433Z,1.97
2023-02-28T02:25:35.548Z,1.98
2023-02-28T02:28:50.819Z,2.01
2023-02-28T02:31:25.997Z,2.04
2023-02-28T02:34:25.570Z,2.05
2023-02-28T02:37:32.645Z,2.04
2023-02-28T02:40:17.428Z,2.04
2023-02-28T02:43:13.022Z,2.04
2023-02-28T02:45:50.945Z,2.04
2023-02-28T02:48:23.180Z,2.04
2023-02-28T02:50:56.633Z,2.04
2023-02-28T02:53:34.720Z,2.02
2023-02-28T02:56:06.658Z,1.99
2023-02-28T02:58:37.620Z,1.96
2023-02-28T03:01:06.356Z,1.94
2023-02-28T03:03:37.927Z,1.93
2023-02-28T03:06:07.480Z,1.91
2023-02-28T03:08:38.409Z,1.91
2023-02-28T03:11:13.568Z,1.90
2023-02-28T03:14:11.519Z,1.88
2023-02-28T03:17:01.608Z,1.88
2023-02-28T03:19:46.988Z,1.89
2023-02-28T03:22:45.886Z,1.88
2023-02-28T03:25:26.018Z,1.88
2023-02-28T03:28:21.373Z,1.88
2023-02-28T03:30:55.091Z,1.88
2023-02-28T03:33:33.669Z,1.87
2023-02-28T03:36:28.372Z,1.87
2023-02-28T03:39:05.351Z,1.87
2023-02-28T03:41:43.356Z,1.88
2023-02-28T03:44:19.729Z,1.88
2023-02-28T03:46:58.783Z,1.89
2023-02-28T03:49:50.993Z,1.89
2023-02-28T03:52:24.593Z,1.90
2023-02-28T03:54:57.550Z,1.91
2023-02-28T03:57:34.148Z,1.92
2023-02-28T04:00:18.280Z,1.94
2023-02-28T04:02:47.495Z,1.94
2023-02-28T04:05:16.279Z,1.95
2023-02-28T04:07:44.869Z,1.94
2023-02-28T04:10:14.478Z,1.93
2023-02-28T04:12:42.961Z,1.91
2023-02-28T04:15:12.672Z,1.90
2023-02-28T04:17:41.668Z,1.89
2023-02-28T04:20:11.271Z,1.89
2023-02-28T04:22:39.958Z,1.88
2023-02-28T04:25:09.159Z,1.88
2023-02-28T04:27:38.074Z,1.88
2023-02-28T04:30:07.657Z,1.87
2023-02-28T04:32:36.411Z,1.87
2023-02-28T04:35:05.820Z,1.89
2023-02-28T04:37:36.194Z,1.90
2023-02-28T04:40:05.685Z,1.91
2023-02-28T04:42:37.233Z,1.91
2023-02-28T04:45:06.914Z,1.92
2023-02-28T04:47:36.057Z,1.91
2023-02-28T04:50:05.236Z,1.91
2023-02-28T04:52:34.023Z,1.93
2023-02-28T04:55:03.041Z,1.93
2023-02-28T04:57:31.733Z,1.95
2023-02-28T05:00:00.492Z,1.95
2023-02-28T05:02:29.050Z,1.94
2023-02-28T05:04:58.001Z,1.92
2023-02-28T05:07:26.960Z,1.91
2023-02-28T05:09:55.441Z,1.90
2023-02-28T05:12:24.125Z,1.91
2023-02-28T05:14:53.019Z,1.91
2023-02-28T05:17:22.009Z,1.89
2023-02-28T05:19:50.594Z,1.90
2023-02-28T05:22:19.383Z,1.91
2023-02-28T05:24:48.171Z,1.92
2023-02-28T05:27:16.757Z,1.94
2023-02-28T05:29:45.326Z,1.95
2023-02-28T05:32:14.310Z,1.96
2023-02-28T05:34:43.330Z,1.96
2023-02-28T05:37:16.943Z,1.97
2023-02-28T05:39:45.896Z,1.97
2023-02-28T05:42:14.511Z,1.95
2023-02-28T05:44:43.406Z,1.95
2023-02-28T05:47:14.110Z,1.96
2023-02-28T05:49:43.534Z,1.96
2023-02-28T05:52:12.123Z,1.96
2023-02-28T05:54:40.914Z,1.97
2023-02-28T05:57:15.670Z,1.97
2023-02-28T05:59:52.834Z,1.97
2023-02-28T06:02:21.714Z,1.98
2023-02-28T06:04:50.815Z,2.01
2023-02-28T06:07:19.400Z,2.03
2023-02-28T06:09:48.390Z,2.05
2023-02-28T06:12:17.183Z,2.07
2023-02-28T06:14:45.774Z,2.08
2023-02-28T06:17:14.657Z,2.10
2023-02-28T06:19:43.448Z,2.13
2023-02-28T06:22:12.100Z,2.16
2023-02-28T06:24:40.889Z,2.19
2023-02-28T06:27:09.711Z,2.20
2023-02-28T06:29:41.073Z,2.21
2023-02-28T06:32:10.906Z,2.24
2023-02-28T06:34:39.771Z,2.24
2023-02-28T06:37:08.452Z,2.24
2023-02-28T06:39:37.831Z,2.25
2023-02-28T06:42:06.749Z,2.27
2023-02-28T06:44:39.331Z,2.28
2023-02-28T06:47:08.324Z,2.32
2023-02-28T06:49:37.521Z,2.33
2023-02-28T06:52:06.412Z,2.34
2023-02-28T06:54:35.419Z,2.34
2023-02-28T06:57:04.292Z,2.34
2023-02-28T06:59:33.191Z,2.34
2023-02-28T07:02:03.315Z,2.34
2023-02-28T07:04:31.916Z,2.35
2023-02-28T07:07:00.578Z,2.36
2023-02-28T07:09:31.204Z,2.37
2023-02-28T07:12:01.876Z,2.37
2023-02-28T07:14:30.520Z,2.39
2023-02-28T07:16:59.320Z,2.41
2023-02-28T07:19:28.195Z,2.45
2023-02-28T07:21:57.088Z,2.49
2023-02-28T07:24:29.672Z,2.52
2023-02-28T07:26:58.456Z,2.52
2023-02-28T07:29:27.999Z,2.53
2023-02-28T07:31:57.869Z,2.57
2023-02-28T07:34:27.282Z,2.61
2023-02-28T07:36:56.090Z,2.65
2023-02-28T07:39:24.941Z,2.69
2023-02-28T07:41:53.972Z,2.71
2023-02-28T07:44:25.612Z,2.73
2023-02-28T07:46:54.667Z,2.76
2023-02-28T07:49:23.720Z,2.79
2023-02-28T07:51:52.291Z,2.82
2023-02-28T07:54:20.989Z,2.85
2023-02-28T07:56:49.875Z,2.87
2023-02-28T07:59:18.579Z,2.89
2023-02-28T08:01:47.269Z,2.92
2023-02-28T08:04:15.932Z,2.95
2023-02-28T08:06:45.230Z,3.00
2023-02-28T08:09:13.841Z,3.03
2023-02-28T08:11:42.499Z,3.08
2023-02-28T08:14:11.456Z,3.11
2023-02-28T08:16:40.122Z,3.13
2023-02-28T08:19:08.664Z,3.17
2023-02-28T08:21:37.521Z,3.17
2023-02-28T08:24:06.759Z,3.14
2023-02-28T08:26:35.544Z,3.12
2023-02-28T08:29:04.225Z,3.14
2023-02-28T08:31:33.487Z,3.15
2023-02-28T08:34:06.627Z,3.15
2023-02-28T08:36:36.575Z,3.17
2023-02-28T08:39:05.232Z,3.20
2023-02-28T08:41:35.135Z,3.21
2023-02-28T08:44:04.438Z,3.23
2023-02-28T08:46:33.118Z,3.23
2023-02-28T08:49:03.237Z,3.23
2023-02-28T08:51:32.434Z,3.24
2023-02-28T08:54:01.950Z,3.24
2023-02-28T08:56:30.847Z,3.24
2023-02-28T08:58:59.516Z,3.25
2023-02-28T09:01:30.727Z,3.27
2023-02-28T09:04:00.889Z,3.28
2023-02-28T09:06:30.242Z,3.31
2023-02-28T09:09:00.651Z,3.34
2023-02-28T09:11:29.975Z,3.36
2023-02-28T09:14:01.804Z,3.38
2023-02-28T09:16:33.032Z,3.40
2023-02-28T09:19:02.930Z,3.39
2023-02-28T09:21:32.528Z,3.40
2023-02-28T09:24:01.232Z,3.42
2023-02-28T09:26:35.338Z,3.45
2023-02-28T09:29:12.729Z,3.48
2023-02-28T09:31:41.425Z,3.50
2023-02-28T09:34:10.081Z,3.48
2023-02-28T09:36:45.325Z,3.45
2023-02-28T09:39:18.101Z,3.44
2023-02-28T09:41:52.186Z,3.46
2023-02-28T09:44:36.609Z,3.48
2023-02-28T09:47:34.494Z,3.54
2023-02-28T09:50:16.685Z,3.63
2023-02-28T09:52:47.165Z,3.68
2023-02-28T09:55:30.642Z,3.73
2023-02-28T09:58:03.171Z,3.80
2023-02-28T10:00:40.310Z,3.87
2023-02-28T10:03:34.103Z,3.93
2023-02-28T10:06:14.020Z,4.01
2023-02-28T10:08:47.322Z,4.06
2023-02-28T10:11:19.589Z,4.12
2023-02-28T10:13:48.274Z,4.19
2023-02-28T10:16:33.604Z,4.25
2023-02-28T10:19:14.532Z,4.30
2023-02-28T10:21:57.247Z,4.35
2023-02-28T10:24:36.571Z,4.36
2023-02-28T10:27:20.007Z,4.38
2023-02-28T10:29:51.498Z,4.41
2023-02-28T10:32:26.674Z,4.44
2023-02-28T10:35:08.594Z,4.45
2023-02-28T10:37:42.792Z,4.46
2023-02-28T10:40:23.170Z,4.49
2023-02-28T10:43:02.706Z,4.56
2023-02-28T10:45:35.930Z,4.61
2023-02-28T10:48:51.318Z,4.65
2023-02-28T10:51:21.007Z,4.65
2023-02-28T10:54:02.930Z,4.62
2023-02-28T10:56:32.470Z,4.59
2023-02-28T10:59:03.360Z,4.58
2023-02-28T11:01:36.910Z,4.63
2023-02-28T11:04:24.030Z,4.68
2023-02-28T11:07:22.227Z,4.73
2023-02-28T11:09:55.426Z,4.79
2023-02-28T11:12:46.863Z,4.83
2023-02-28T11:15:26.673Z,4.84
2023-02-28T11:17:56.352Z,4.84
2023-02-28T11:20:28.159Z,4.84
2023-02-28T11:23:00.133Z,4.81
2023-02-28T11:25:34.145Z,4.79
2023-02-28T11:28:07.636Z,4.77
2023-02-28T11:30:45.070Z,4.77
2023-02-28T11:33:32.364Z,4.78
2023-02-28T11:36:10.068Z,4.78
2023-02-28T11:38:39.473Z,4.79
2023-02-28T11:41:44.360Z,4.80
2023-02-28T11:44:52.657Z,4.83
2023-02-28T11:47:48.930Z,4.83
2023-02-28T11:50:55.196Z,4.85
2023-02-28T11:53:56.421Z,4.86
2023-02-28T11:57:10.300Z,4.83
2023-02-28T11:59:48.521Z,4.86
2023-02-28T12:02:43.786Z,4.89
2023-02-28T12:05:27.573Z,4.91
2023-02-28T12:08:02.393Z,4.92
2023-02-28T12:10:54.532Z,4.93
2023-02-28T12:13:31.104Z,4.95
2023-02-28T12:16:16.613Z,4.99
2023-02-28T12:18:53.912Z,5.01
2023-02-28T12:21:50.312Z,5.08
2023-02-28T12:24:50.537Z,5.13
2023-02-28T12:27:25.275Z,5.12
2023-02-28T12:30:04.191Z,5.10
2023-02-28T12:32:43.851Z,5.08
2023-02-28T12:35:27.499Z,5.05
2023-02-28T12:38:20.833Z,5.05
2023-02-28T12:41:03.074Z,5.06
2023-02-28T12:43:41.053Z,5.10
2023-02-28T12:46:16.969Z,5.14
2023-02-28T12:48:58.449Z,5.18
2023-02-28T12:51:28.904Z,5.21
2023-02-28T12:54:23.405Z,5.20
2023-02-28T12:57:23.218Z,5.21
2023-02-28T13:00:11.057Z,5.16
2023-02-28T13:02:42.876Z,5.14
2023-02-28T13:05:20.306Z,5.14
2023-02-28T13:08:28.833Z,5.14
2023-02-28T13:10:57.993Z,5.11
2023-02-28T13:13:30.890Z,5.08
2023-02-28T13:16:08.934Z,5.06
2023-02-28T13:18:40.436Z,5.05
2023-02-28T13:21:11.685Z,5.04
2023-02-28T13:23:52.591Z,5.06
2023-02-28T13:26:21.476Z,5.09
2023-02-28T13:28:50.366Z,5.11
2023-02-28T13:31:19.883Z,5.11
2023-02-28T13:33:51.733Z,5.12
2023-02-28T13:36:20.566Z,5.10
2023-02-28T13:39:01.566Z,5.08
2023-02-28T13:41:31.054Z,5.05
2023-02-28T13:44:20.175Z,5.04
2023-02-28T13:46:49.643Z,5.04
2023-02-28T13:49:29.725Z,5.06
2023-02-28T13:52:07.387Z,5.08
2023-02-28T13:54:57.649Z,5.09
2023-02-28T13:57:35.058Z,5.10
2023-02-28T14:00:29.980Z,5.12
2023-02-28T14:03:23.713Z,5.19
2023-02-28T14:06:26.780Z,5.22
2023-02-28T14:09:04.398Z,5.20
2023-02-28T14:11:37.260Z,5.20
2023-02-28T14:14:07.497Z,5.23
2023-02-28T14:16:40.867Z,5.29
2023-02-28T14:19:25.540Z,5.37
2023-02-28T14:22:11.951Z,5.48
2023-02-28T14:24:53.437Z,5.62
2023-02-28T14:27:41.176Z,5.70
2023-02-28T14:30:17.125Z,5.78
2023-02-28T14:33:23.358Z,5.83
2023-02-28T14:36:05.823Z,5.88
2023-02-28T14:39:16.006Z,5.90
2023-02-28T14:41:46.076Z,5.91
2023-02-28T14:44:20.616Z,5.92
2023-02-28T14:46:56.191Z,5.96
2023-02-28T14:49:53.096Z,5.98
2023-02-28T14:52:24.754Z,6.01
2023-02-28T14:55:14.024Z,6.00
2023-02-28T14:57:52.747Z,6.03
2023-02-28T15:00:31.640Z,6.06
2023-02-28T15:03:02.609Z,6.09
2023-02-28T15:05:34.328Z,6.13
2023-02-28T15:08:23.690Z,6.17
2023-02-28T15:10:56.389Z,6.22
2023-02-28T15:13:35.961Z,6.24
2023-02-28T15:16:09.639Z,6.26
2023-02-28T15:18:59.648Z,6.30
2023-02-28T15:21:37.854Z,6.34
2023-02-28T15:24:24.962Z,6.35
2023-02-28T15:27:01.167Z,6.37
2023-02-28T15:29:35.358Z,6.38
2023-02-28T15:32:09.291Z,6.38
2023-02-28T15:34:44.784Z,6.40
2023-02-28T15:37:28.036Z,6.39
2023-02-28T15:39:59.753Z,6.38
2023-02-28T15:42:32.747Z,6.38
2023-02-28T15:45:01.470Z,6.38
2023-02-28T15:47:31.892Z,6.40
2023-02-28T15:50:15.265Z,6.40
2023-02-28T15:52:46.572Z,6.39
2023-02-28T15:55:22.494Z,6.39
2023-02-28T15:57:54.353Z,6.39
2023-02-28T16:00:25.344Z,6.38
2023-02-28T16:02:54.168Z,6.39
2023-02-28T16:05:31.658Z,6.38
2023-02-28T16:08:15.559Z,6.35
2023-02-28T16:10:45.147Z,6.31
2023-02-28T16:13:16.412Z,6.27
2023-02-28T16:15:45.353Z,6.27
2023-02-28T16:18:14.626Z,6.27
2023-02-28T16:20:45.849Z,6.27
2023-02-28T16:23:14.496Z,6.26
2023-02-28T16:25:47.257Z,6.26
2023-02-28T16:28:26.659Z,6.25
2023-02-28T16:30:55.678Z,6.22
2023-02-28T16:33:24.457Z,6.17
2023-02-28T16:35:53.665Z,6.15
2023-02-28T16:38:24.581Z,6.13
2023-02-28T16:40:57.024Z,6.11
2023-02-28T16:43:27.521Z,6.07
2023-02-28T16:46:01.189Z,6.04
2023-02-28T16:48:32.023Z,6.01
2023-02-28T16:51:01.407Z,6.00
2023-02-28T16:53:29.859Z,5.98
2023-02-28T16:55:58.508Z,5.93
2023-02-28T16:58:28.882Z,5.88
2023-02-28T17:00:57.532Z,5.81
2023-02-28T17:03:33.263Z,5.78
2023-02-28T17:06:02.888Z,5.74
2023-02-28T17:08:33.475Z,5.74
2023-02-28T17:11:04.099Z,5.72
2023-02-28T17:13:35.614Z,5.70
2023-02-28T17:16:05.060Z,5.65
2023-02-28T17:18:35.935Z,5.60
2023-02-28T17:21:05.023Z,5.57
2023-02-28T17:23:33.610Z,5.53
2023-02-28T17:26:02.498Z,5.50
2023-02-28T17:28:31.292Z,5.48
2023-02-28T17:31:00.134Z,5.45
2023-02-28T17:33:29.138Z,5.44
2023-02-28T17:35:58.125Z,5.42
2023-02-28T17:38:26.824Z,5.39
2023-02-28T17:40:58.410Z,5.35
2023-02-28T17:43:30.093Z,5.29
2023-02-28T17:45:59.612Z,5.23
2023-02-28T17:48:29.155Z,5.15
2023-02-28T17:50:58.485Z,5.09
2023-02-28T17:53:28.324Z,5.05
2023-02-28T17:55:56.885Z,5.00
2023-02-28T17:58:26.695Z,4.96
2023-02-28T18:00:55.691Z,4.94
2023-02-28T18:03:25.501Z,4.92
2023-02-28T18:05:54.293Z,4.93
2023-02-28T18:08:23.409Z,4.91
2023-02-28T18:10:51.870Z,4.90
2023-02-28T18:13:20.762Z,4.92
2023-02-28T18:15:49.678Z,4.93
2023-02-28T18:18:18.234Z,4.92
2023-02-28T18:20:49.495Z,4.88
2023-02-28T18:23:19.318Z,4.87
2023-02-28T18:25:48.601Z,4.87
2023-02-28T18:28:17.800Z,4.87
2023-02-28T18:30:46.686Z,4.83
2023-02-28T18:33:15.476Z,4.80
2023-02-28T18:35:45.133Z,4.77
2023-02-28T18:38:16.375Z,4.76
2023-02-28T18:40:54.299Z,4.76
2023-02-28T18:43:24.144Z,4.75
2023-02-28T18:45:52.727Z,4.72
2023-02-28T18:48:23.580Z,4.72
2023-02-28T18:50:52.952Z,4.72
2023-02-28T18:53:21.652Z,4.73
2023-02-28T18:55:50.443Z,4.74
2023-02-28T18:58:19.132Z,4.75
2023-02-28T19:00:48.164Z,4.75
2023-02-28T19:03:16.913Z,4.74
2023-02-28T19:05:45.900Z,4.72
2023-02-28T19:08:15.000Z,4.68
2023-02-28T19:10:44.105Z,4.65
2023-02-28T19:13:12.784Z,4.62
2023-02-28T19:15:41.479Z,4.62
2023-02-28T19:18:10.408Z,4.62
2023-02-28T19:20:39.561Z,4.63
2023-02-28T19:23:10.705Z,4.63
2023-02-28T19:25:43.400Z,4.61
2023-02-28T19:28:12.073Z,4.60
2023-02-28T19:30:41.078Z,4.58
2023-02-28T19:33:10.059Z,4.57
2023-02-28T19:35:41.479Z,4.56
2023-02-28T19:38:10.685Z,4.52
2023-02-28T19:40:39.916Z,4.49
2023-02-28T19:43:09.007Z,4.45
2023-02-28T19:45:38.913Z,4.42
2023-02-28T19:48:10.169Z,4.42
2023-02-28T19:50:41.792Z,4.42
2023-02-28T19:53:10.510Z,4.42
2023-02-28T19:55:39.198Z,4.43
2023-02-28T19:58:08.270Z,4.41
2023-02-28T20:00:36.883Z,4.40
2023-02-28T20:03:05.468Z,4.40
2023-02-28T20:05:34.359Z,4.40
2023-02-28T20:08:02.910Z,4.38
2023-02-28T20:10:31.323Z,4.37
2023-02-28T20:13:00.518Z,4.35
2023-02-28T20:15:29.923Z,4.34
2023-02-28T20:18:00.591Z,4.30
2023-02-28T20:20:29.443Z,4.26
2023-02-28T20:22:58.238Z,4.22
2023-02-28T20:25:27.341Z,4.20
2023-02-28T20:27:56.221Z,4.21
2023-02-28T20:30:25.054Z,4.21
2023-02-28T20:32:53.815Z,4.21
2023-02-28T20:35:22.713Z,4.23
2023-02-28T20:37:51.276Z,4.23
2023-02-28T20:40:20.169Z,4.23
2023-02-28T20:42:48.957Z,4.25
2023-02-28T20:45:17.745Z,4.25
2023-02-28T20:47:46.432Z,4.23
2023-02-28T20:50:16.473Z,4.21
2023-02-28T20:52:45.135Z,4.18
2023-02-28T20:55:14.672Z,4.15
2023-02-28T20:57:43.843Z,4.13
2023-02-28T21:00:16.412Z,4.13
2023-02-28T21:02:45.812Z,4.12
2023-02-28T21:05:14.719Z,4.12
2023-02-28T21:07:43.405Z,4.12
2023-02-28T21:10:12.705Z,4.12
2023-02-28T21:12:41.288Z,4.11
2023-02-28T21:15:10.265Z,4.11
2023-02-28T21:17:39.379Z,4.10
2023-02-28T21:20:08.247Z,4.10
2023-02-28T21:22:36.855Z,4.11
2023-02-28T21:25:06.167Z,4.14
2023-02-28T21:27:35.355Z,4.14
2023-02-28T21:30:05.601Z,4.16
2023-02-28T21:32:34.570Z,4.17
2023-02-28T21:35:03.054Z,4.18
2023-02-28T21:37:31.669Z,4.17
2023-02-28T21:40:00.734Z,4.17
2023-02-28T21:42:29.325Z,4.17
2023-02-28T21:44:59.131Z,4.17
2023-02-28T21:47:31.784Z,4.17
2023-02-28T21:50:00.291Z,4.16
2023-02-28T21:52:29.287Z,4.15
2023-02-28T21:54:58.251Z,4.14
2023-02-28T21:57:27.598Z,4.11
2023-02-28T21:59:56.678Z,4.09
2023-02-28T22:02:25.381Z,4.06
2023-02-28T22:04:54.155Z,4.02
2023-02-28T22:07:23.045Z,3.98
2023-02-28T22:09:51.836Z,3.95
2023-02-28T22:12:20.521Z,3.93
2023-02-28T22:14:49.205Z,3.92
2023-02-28T22:17:17.746Z,3.90
2023-02-28T22:19:46.372Z,3.89
2023-02-28T22:22:14.955Z,3.89
2023-02-28T22:24:43.846Z,3.90
2023-02-28T22:27:12.634Z,3.90
2023-02-28T22:29:41.711Z,3.91
2023-02-28T22:32:11.838Z,3.91
2023-02-28T22:34:40.337Z,3.92
2023-02-28T22:37:09.428Z,3.88
2023-02-28T22:39:38.116Z,3.87
2023-02-28T22:42:07.211Z,3.85
2023-02-28T22:44:36.893Z,3.82
2023-02-28T22:47:06.396Z,3.78
2023-02-28T22:49:35.016Z,3.76
2023-02-28T22:52:03.798Z,3.75
2023-02-28T22:54:32.795Z,3.73
2023-02-28T22:57:01.384Z,3.73
2023-02-28T22:59:30.170Z,3.71
2023-02-28T23:01:59.339Z,3.71
2023-02-28T23:04:28.073Z,3.71
2023-02-28T23:06:57.046Z,3.71
2023-02-28T23:09:25.737Z,3.71
2023-02-28T23:11:54.740Z,3.70
2023-02-28T23:14:23.417Z,3.70
2023-02-28T23:16:54.505Z,3.70
2023-02-28T23:19:26.942Z,3.71
2023-02-28T23:21:57.677Z,3.69
2023-02-28T23:24:29.117Z,3.68
2023-02-28T23:27:03.025Z,3.68
2023-02-28T23:29:32.137Z,3.71
2023-02-28T23:32:01.325Z,3.73
2023-02-28T23:34:32.582Z,3.73
2023-02-28T23:37:02.606Z,3.72
2023-02-28T23:39:31.995Z,3.71
2023-02-28T23:42:02.285Z,3.70
2023-02-28T23:44:32.138Z,3.67
2023-02-28T23:47:01.322Z,3.66
2023-02-28T23:49:29.906Z,3.66
2023-02-28T23:51:58.499Z,3.64
2023-02-28T23:54:27.282Z,3.61
2023-02-28T23:56:56.184Z,3.61
2023-02-28T23:59:24.964Z,3.60
